Time;durP1;ratioP1;P1;durP2;ratioP2;P2;SDS_P1;SDS_P2;PMS_P1;PMS_P2;Temp;Humidity;BMP_temperature;BMP_pressure;BME280_temperature;BME280_humidity;BME280_pressure;Samples;Min_cycle;Max_cycle;Signal;HPM_P1;HPM_P2
2022/08/31 00:04:42;;;;;;;7.25;3.85;;;20.80;65.80;;;;;;5007864;28;20548;-63
2022/08/31 00:07:08;;;;;;;4.53;3.72;;;20.80;65.70;;;;;;5011307;28;20485;-63
2022/08/31 00:09:34;;;;;;;4.32;3.88;;;20.70;65.90;;;;;;5007999;28;20060;-63
2022/08/31 00:11:59;;;;;;;4.25;3.78;;;20.70;66.10;;;;;;5008481;28;20138;-63
2022/08/31 00:14:25;;;;;;;5.57;4.00;;;20.70;66.20;;;;;;5012768;28;20041;-63
2022/08/31 00:16:51;;;;;;;5.82;4.28;;;20.70;66.40;;;;;;5009019;28;20040;-63
2022/08/31 00:19:17;;;;;;;6.65;4.10;;;20.70;66.30;;;;;;5006842;28;20042;-63
2022/08/31 00:21:42;;;;;;;6.00;4.40;;;20.70;65.90;;;;;;5011313;28;20038;-63
2022/08/31 00:24:08;;;;;;;5.90;5.00;;;20.70;65.80;;;;;;5009677;28;20072;-63
2022/08/31 00:26:35;;;;;;;6.32;5.18;;;20.70;65.60;;;;;;5007953;28;20127;-64
2022/08/31 00:29:00;;;;;;;5.55;4.75;;;20.70;65.50;;;;;;5009162;28;20367;-63
2022/08/31 00:31:26;;;;;;;5.63;5.07;;;20.60;65.90;;;;;;5010279;28;20525;-64
2022/08/31 00:33:52;;;;;;;7.18;5.07;;;20.50;66.20;;;;;;5005300;28;20034;-63
2022/08/31 00:36:20;;;;;;;5.45;4.82;;;20.50;66.60;;;;;;5005595;28;20133;-63
2022/08/31 00:38:48;;;;;;;5.68;5.10;;;20.50;66.90;;;;;;5006905;28;20563;-63
2022/08/31 00:41:15;;;;;;;5.95;5.40;;;20.50;67.00;;;;;;5013725;28;20383;-63
2022/08/31 00:43:45;;;;;;;8.25;5.07;;;20.50;68.30;;;;;;5010339;28;20030;-63
2022/08/31 00:46:14;;;;;;;5.18;4.68;;;20.30;67.80;;;;;;5009533;28;20449;-63
2022/08/31 00:48:44;;;;;;;5.40;4.38;;;20.30;67.70;;;;;;5025221;28;20033;-64
2022/08/31 00:51:11;;;;;;;6.18;4.40;;;20.30;67.80;;;;;;5026104;28;20041;-63
2022/08/31 00:53:37;;;;;;;5.18;4.68;;;20.20;67.60;;;;;;5026431;28;20128;-63
2022/08/31 00:56:03;;;;;;;8.13;4.28;;;20.20;67.60;;;;;;5029369;28;20075;-63
2022/08/31 00:58:29;;;;;;;6.50;4.60;;;20.20;67.90;;;;;;5028619;28;20041;-63
2022/08/31 01:00:56;;;;;;;6.18;4.40;;;20.10;67.40;;;;;;5029916;28;20036;-64
2022/08/31 01:03:23;;;;;;;5.28;4.50;;;20.10;67.20;;;;;;5030433;28;20048;-63
2022/08/31 01:05:49;;;;;;;5.80;4.50;;;20.10;67.70;;;;;;5028382;28;20091;-63
2022/08/31 01:08:15;;;;;;;5.57;4.60;;;20.10;68.00;;;;;;5030638;28;20049;-63
2022/08/31 01:10:43;;;;;;;5.25;4.75;;;20.10;68.10;;;;;;5028277;28;20033;-63
2022/08/31 01:13:11;;;;;;;6.55;4.68;;;20.10;68.30;;;;;;5030191;28;20117;-63
2022/08/31 01:15:42;;;;;;;6.32;4.72;;;20.10;68.30;;;;;;5023949;28;20044;-64
2022/08/31 01:18:09;;;;;;;4.80;4.40;;;20.10;68.50;;;;;;5029914;28;20125;-63
2022/08/31 01:20:52;;;;;;;7.50;4.80;;;20.10;68.00;;;;;;5025423;28;20538;-63
2022/08/31 01:23:25;;;;;;;4.60;4.18;;;20.10;67.60;;;;;;5030233;28;20045;-63
2022/08/31 01:25:54;;;;;;;6.30;4.13;;;20.10;67.90;;;;;;5029320;28;20044;-63
2022/08/31 01:28:19;;;;;;;5.20;4.55;;;20.10;67.60;;;;;;5027618;28;20109;-63
2022/08/31 01:31:24;;;;;;;5.47;4.32;;;20.10;67.40;;;;;;5026920;28;20785;-63
2022/08/31 01:33:50;;;;;;;6.32;3.90;;;20.10;67.50;;;;;;5026593;28;20049;-64
2022/08/31 01:36:17;;;;;;;5.93;4.40;;;20.10;68.00;;;;;;5028783;28;20033;-63
2022/08/31 01:38:43;;;;;;;6.03;4.25;;;20.20;68.00;;;;;;5029400;28;20516;-63
2022/08/31 01:41:09;;;;;;;6.57;4.07;;;20.10;66.90;;;;;;5031521;28;20049;-63
2022/08/31 01:43:35;;;;;;;6.10;4.32;;;20.20;67.00;;;;;;5026394;28;20226;-63
2022/08/31 01:46:02;;;;;;;6.50;4.80;;;20.20;66.90;;;;;;5027321;28;20505;-63
2022/08/31 01:48:28;;;;;;;6.22;4.72;;;20.20;66.70;;;;;;5032100;28;20563;-62
2022/08/31 01:50:54;;;;;;;6.13;4.10;;;20.20;66.70;;;;;;5028895;28;20045;-62
2022/08/31 01:53:20;;;;;;;4.45;4.05;;;20.20;66.80;;;;;;5031266;28;20072;-63
2022/08/31 01:55:46;;;;;;;8.20;4.13;;;20.20;66.80;;;;;;5035356;28;20055;-63
2022/08/31 01:58:12;;;;;;;4.88;4.28;;;20.20;66.90;;;;;;5034902;28;20045;-63
2022/08/31 02:00:38;;;;;;;5.05;4.40;;;20.20;66.70;;;;;;5030880;28;20041;-64
2022/08/31 02:03:06;;;;;;;7.10;4.55;;;20.20;66.40;;;;;;5033105;28;20586;-63
2022/08/31 02:05:34;;;;;;;7.68;4.18;;;20.20;66.30;;;;;;5030556;28;20033;-63
2022/08/31 02:08:01;;;;;;;4.68;4.20;;;20.20;66.10;;;;;;5030643;28;20517;-64
2022/08/31 02:10:26;;;;;;;7.18;4.38;;;20.20;66.30;;;;;;5030089;28;20041;-63
2022/08/31 02:12:52;;;;;;;7.60;4.90;;;20.20;66.40;;;;;;5031670;28;20041;-63
2022/08/31 02:15:18;;;;;;;5.97;4.30;;;20.20;66.60;;;;;;5031496;28;20426;-63
2022/08/31 02:17:44;;;;;;;5.07;4.15;;;20.20;66.70;;;;;;5033807;28;20037;-63
2022/08/31 02:20:11;;;;;;;5.45;4.90;;;20.10;66.80;;;;;;5034888;28;20532;-63
2022/08/31 02:22:37;;;;;;;5.53;4.80;;;20.10;66.70;;;;;;5031649;28;20033;-63
2022/08/31 02:25:04;;;;;;;5.38;4.88;;;20.10;66.70;;;;;;5029751;28;20048;-62
2022/08/31 02:27:30;;;;;;;6.05;4.38;;;20.20;66.80;;;;;;5032414;28;20037;-62
2022/08/31 02:29:56;;;;;;;5.13;4.45;;;20.10;66.70;;;;;;5031824;28;20124;-62
2022/08/31 02:32:22;;;;;;;6.40;4.55;;;20.10;66.90;;;;;;5032464;28;20127;-64
2022/08/31 02:34:48;;;;;;;7.13;4.20;;;20.00;66.90;;;;;;5032886;28;20518;-63
2022/08/31 02:37:14;;;;;;;5.40;4.68;;;20.00;67.00;;;;;;5030365;28;20032;-64
2022/08/31 02:39:39;;;;;;;5.25;4.13;;;20.00;67.40;;;;;;5027577;28;20102;-63
2022/08/31 02:42:05;;;;;;;7.55;4.65;;;20.00;67.60;;;;;;5033480;28;20788;-63
2022/08/31 02:44:31;;;;;;;4.47;4.07;;;20.00;67.80;;;;;;5029022;28;20053;-63
2022/08/31 02:46:56;;;;;;;4.65;4.25;;;20.00;67.80;;;;;;5030276;28;20029;-63
2022/08/31 02:49:22;;;;;;;5.70;4.82;;;20.00;68.20;;;;;;5034206;28;20029;-64
2022/08/31 02:51:47;;;;;;;4.95;4.45;;;20.00;67.80;;;;;;5029395;28;20029;-63
2022/08/31 02:54:13;;;;;;;8.80;5.53;;;20.00;67.60;;;;;;5028757;28;20506;-63
2022/08/31 02:56:39;;;;;;;6.22;5.10;;;19.90;67.50;;;;;;5029997;28;21640;-63
2022/08/31 02:59:06;;;;;;;5.88;4.63;;;19.80;67.60;;;;;;5027589;28;20037;-63
2022/08/31 03:01:32;;;;;;;7.80;5.05;;;19.80;67.80;;;;;;5029518;28;20033;-62
2022/08/31 03:03:59;;;;;;;4.65;4.25;;;19.70;68.10;;;;;;5033085;28;20050;-63
2022/08/31 03:06:25;;;;;;;5.95;5.00;;;19.60;68.30;;;;;;5032540;28;20032;-63
2022/08/31 03:08:51;;;;;;;5.68;5.10;;;19.60;68.60;;;;;;5028611;28;20565;-63
2022/08/31 03:11:17;;;;;;;6.47;4.93;;;19.50;68.60;;;;;;5030048;28;20037;-63
2022/08/31 03:13:43;;;;;;;8.27;6.00;;;19.50;68.90;;;;;;5032828;28;20500;-63
2022/08/31 03:16:12;;;;;;;6.22;5.57;;;19.50;69.00;;;;;;5028663;28;20056;-63
2022/08/31 03:18:38;;;;;;;6.25;5.25;;;19.40;69.20;;;;;;5029904;28;20094;-62
2022/08/31 03:21:03;;;;;;;6.65;5.13;;;19.40;69.30;;;;;;5034482;28;20056;-64
2022/08/31 03:23:29;;;;;;;6.93;5.18;;;19.40;69.50;;;;;;5031381;28;20481;-63
2022/08/31 03:25:55;;;;;;;7.13;5.40;;;19.40;69.70;;;;;;5029881;28;20040;-63
2022/08/31 03:28:21;;;;;;;6.18;5.03;;;19.40;69.70;;;;;;5028847;28;20041;-63
2022/08/31 03:30:46;;;;;;;6.85;4.97;;;19.50;69.90;;;;;;5027281;28;20041;-62
2022/08/31 03:33:12;;;;;;;7.32;5.13;;;19.50;70.20;;;;;;5029589;28;20048;-63
2022/08/31 03:35:42;;;;;;;7.40;5.40;;;19.50;70.70;;;;;;5028822;28;20029;-63
2022/08/31 03:38:08;;;;;;;6.63;5.38;;;19.50;70.10;;;;;;5030647;28;20037;-63
2022/08/31 03:40:34;;;;;;;5.63;5.10;;;19.60;70.30;;;;;;5027599;28;20385;-63
2022/08/31 03:42:59;;;;;;;7.72;5.40;;;19.60;70.40;;;;;;5028718;28;20048;-63
2022/08/31 03:45:26;;;;;;;5.93;5.28;;;19.70;70.50;;;;;;5026262;28;20042;-63
2022/08/31 03:47:52;;;;;;;5.78;5.00;;;19.70;70.50;;;;;;5027993;28;20083;-63
2022/08/31 03:50:18;;;;;;;6.18;5.13;;;19.70;70.60;;;;;;5027150;28;20045;-62
2022/08/31 03:52:44;;;;;;;6.13;5.30;;;19.80;70.60;;;;;;5027436;28;20040;-64
2022/08/31 03:55:11;;;;;;;6.85;5.45;;;19.80;70.60;;;;;;5024831;28;20029;-63
2022/08/31 03:57:36;;;;;;;6.03;5.40;;;19.90;70.70;;;;;;5031149;28;20381;-62
2022/08/31 04:00:05;;;;;;;8.18;5.90;;;19.90;70.70;;;;;;5026448;28;20080;-64
2022/08/31 04:02:30;;;;;;;6.88;5.68;;;20.00;70.60;;;;;;5027163;28;20603;-62
2022/08/31 04:04:56;;;;;;;5.78;5.20;;;20.00;70.60;;;;;;5030473;28;20033;-63
2022/08/31 04:07:22;;;;;;;6.40;5.65;;;20.00;70.40;;;;;;5031102;28;20111;-63
2022/08/31 04:09:48;;;;;;;9.25;5.80;;;20.10;70.20;;;;;;5027941;28;20496;-63
2022/08/31 04:12:16;;;;;;;6.60;5.68;;;20.10;70.40;;;;;;5028913;28;20394;-63
2022/08/31 04:14:42;;;;;;;7.57;5.25;;;20.20;70.50;;;;;;5028485;28;20055;-63
2022/08/31 04:17:11;;;;;;;6.38;5.53;;;20.20;70.20;;;;;;5027040;28;20041;-63
2022/08/31 04:19:39;;;;;;;6.10;5.50;;;20.20;70.10;;;;;;5031268;28;20565;-63
2022/08/31 04:22:05;;;;;;;7.68;5.82;;;20.20;70.00;;;;;;5028382;28;20041;-63
2022/08/31 04:24:31;;;;;;;6.68;5.63;;;20.20;70.00;;;;;;5030013;28;20530;-63
2022/08/31 04:26:57;;;;;;;6.78;5.40;;;20.20;70.20;;;;;;5031264;28;20295;-63
2022/08/31 04:29:23;;;;;;;5.95;5.28;;;20.30;70.20;;;;;;5031528;28;20499;-63
2022/08/31 04:31:48;;;;;;;7.25;5.85;;;20.20;70.90;;;;;;5027139;28;20025;-64
2022/08/31 04:34:14;;;;;;;6.85;6.15;;;20.30;70.00;;;;;;5023777;28;20464;-63
2022/08/31 04:36:40;;;;;;;6.07;5.38;;;20.30;70.00;;;;;;5025665;28;20030;-63
2022/08/31 04:39:06;;;;;;;6.70;5.53;;;20.30;69.90;;;;;;5032180;28;20523;-63
2022/08/31 04:41:35;;;;;;;5.90;5.30;;;20.30;69.80;;;;;;5031387;28;20254;-63
2022/08/31 04:44:02;;;;;;;7.60;5.57;;;20.30;69.90;;;;;;5031963;28;20043;-63
2022/08/31 04:46:28;;;;;;;6.25;5.65;;;20.30;70.00;;;;;;5030123;28;20029;-64
2022/08/31 04:48:55;;;;;;;7.80;5.85;;;20.30;70.10;;;;;;5031691;28;20489;-63
2022/08/31 04:51:25;;;;;;;9.10;5.78;;;20.30;70.20;;;;;;5032002;28;20041;-60
2022/08/31 04:53:51;;;;;;;8.50;6.28;;;20.30;70.70;;;;;;5033186;28;20547;-62
2022/08/31 04:56:23;;;;;;;7.40;5.80;;;20.30;70.80;;;;;;5033063;28;20037;-62
2022/08/31 04:58:55;;;;;;;7.95;5.75;;;20.30;71.30;;;;;;5031222;28;20475;-62
2022/08/31 05:01:25;;;;;;;6.72;5.93;;;20.30;71.60;;;;;;5032599;28;20037;-61
2022/08/31 05:03:54;;;;;;;7.60;6.00;;;20.30;71.80;;;;;;5030241;28;20116;-61
2022/08/31 05:06:22;;;;;;;10.48;6.53;;;20.30;72.10;;;;;;5032235;28;20059;-62
2022/08/31 05:08:54;;;;;;;8.00;6.70;;;20.30;72.10;;;;;;5031210;28;20471;-61
2022/08/31 05:11:22;;;;;;;7.22;6.53;;;20.20;72.60;;;;;;5028778;28;20463;-60
2022/08/31 05:13:48;;;;;;;9.32;6.93;;;20.20;72.50;;;;;;5032908;28;20041;-60
2022/08/31 05:16:15;;;;;;;10.07;6.53;;;20.20;72.90;;;;;;5031847;28;20463;-60
2022/08/31 05:18:42;;;;;;;9.95;6.70;;;20.10;73.30;;;;;;5031076;28;20044;-60
2022/08/31 05:21:27;;;;;;;10.52;6.75;;;20.10;73.60;;;;;;5033334;28;20040;-61
2022/08/31 05:23:58;;;;;;;8.43;6.57;;;20.00;74.80;;;;;;5035717;28;20057;-60
2022/08/31 05:26:26;;;;;;;9.57;6.60;;;20.00;74.40;;;;;;5035371;28;20111;-61
2022/08/31 05:28:53;;;;;;;9.10;7.00;;;19.90;74.90;;;;;;5037640;28;20056;-61
2022/08/31 05:31:19;;;;;;;10.45;6.75;;;19.80;75.10;;;;;;5034729;28;20038;-60
2022/08/31 05:33:45;;;;;;;9.27;6.53;;;19.70;75.10;;;;;;5036395;28;20029;-59
2022/08/31 05:36:11;;;;;;;9.13;6.57;;;19.70;75.80;;;;;;5036320;28;20051;-60
2022/08/31 05:38:37;;;;;;;9.30;6.80;;;19.60;76.10;;;;;;5035852;28;20152;-62
2022/08/31 05:41:05;;;;;;;10.90;6.60;;;19.50;76.30;;;;;;5036988;28;20045;-60
2022/08/31 05:43:31;;;;;;;8.25;6.75;;;19.50;76.60;;;;;;5033735;28;20032;-59
2022/08/31 05:45:57;;;;;;;8.25;6.65;;;19.50;76.70;;;;;;5036457;28;20040;-61
2022/08/31 05:48:23;;;;;;;7.72;6.70;;;19.40;77.00;;;;;;5036245;28;20036;-61
2022/08/31 05:50:50;;;;;;;6.80;5.93;;;19.40;77.20;;;;;;5036361;28;20045;-60
2022/08/31 05:53:16;;;;;;;8.60;6.63;;;19.40;77.70;;;;;;5034678;28;20042;-63
2022/08/31 05:55:42;;;;;;;7.07;6.38;;;19.40;77.90;;;;;;5038132;28;20048;-61
2022/08/31 05:58:07;;;;;;;7.55;6.63;;;19.40;78.00;;;;;;5034890;28;20098;-59
2022/08/31 06:00:34;;;;;;;8.70;6.65;;;19.40;78.20;;;;;;5034597;28;20041;-59
2022/08/31 06:02:59;;;;;;;10.43;6.80;;;19.40;78.40;;;;;;5035042;28;20044;-62
2022/08/31 06:05:25;;;;;;;9.88;7.00;;;19.40;78.60;;;;;;5037419;28;20060;-60
2022/08/31 06:07:51;;;;;;;8.60;6.82;;;19.30;78.60;;;;;;5035684;28;20041;-61
2022/08/31 06:10:17;;;;;;;7.40;6.70;;;19.30;78.90;;;;;;5036646;28;20086;-62
2022/08/31 06:12:45;;;;;;;7.80;7.00;;;19.30;79.20;;;;;;5033309;28;20420;-60
2022/08/31 06:15:10;;;;;;;7.95;6.93;;;19.30;79.40;;;;;;5033728;28;20555;-61
2022/08/31 06:17:36;;;;;;;8.73;6.85;;;19.20;79.40;;;;;;5036365;28;20033;-62
2022/08/31 06:20:04;;;;;;;9.48;7.32;;;19.20;79.80;;;;;;5034884;28;20351;-62
2022/08/31 06:22:30;;;;;;;8.60;7.50;;;19.10;80.30;;;;;;5035492;28;20056;-61
2022/08/31 06:24:56;;;;;;;9.55;6.97;;;19.10;80.30;;;;;;5033532;28;20401;-62
2022/08/31 06:27:21;;;;;;;9.50;7.70;;;19.00;80.60;;;;;;5036617;28;20068;-62
2022/08/31 06:29:48;;;;;;;9.68;7.50;;;19.00;81.00;;;;;;5032702;28;20116;-61
2022/08/31 06:32:14;;;;;;;9.98;7.53;;;19.00;81.50;;;;;;5033074;28;20069;-62
2022/08/31 06:34:41;;;;;;;9.55;7.60;;;18.90;82.00;;;;;;5033003;28;20083;-61
2022/08/31 06:37:09;;;;;;;8.70;6.82;;;18.90;82.20;;;;;;5033912;28;20546;-61
2022/08/31 06:39:36;;;;;;;7.80;7.05;;;18.80;82.20;;;;;;5034208;28;20029;-61
2022/08/31 06:42:02;;;;;;;7.78;6.95;;;18.80;82.40;;;;;;5035751;28;20539;-62
2022/08/31 06:44:28;;;;;;;8.07;7.28;;;18.70;82.90;;;;;;5034198;28;20033;-61
2022/08/31 06:46:55;;;;;;;8.88;7.00;;;18.70;83.00;;;;;;5034354;28;20024;-62
2022/08/31 06:49:21;;;;;;;9.25;7.55;;;18.70;83.10;;;;;;5035205;28;20400;-61
2022/08/31 06:51:48;;;;;;;9.75;7.60;;;18.70;83.40;;;;;;5032415;28;20037;-62
2022/08/31 06:54:15;;;;;;;8.95;7.75;;;18.70;83.60;;;;;;5032144;28;20091;-62
2022/08/31 06:56:41;;;;;;;8.43;7.57;;;18.60;83.70;;;;;;5035019;28;20030;-61
2022/08/31 06:59:07;;;;;;;9.25;7.03;;;18.60;83.60;;;;;;5031846;28;20221;-60
2022/08/31 07:01:35;;;;;;;8.85;7.50;;;18.70;84.00;;;;;;5034770;28;20072;-59
2022/08/31 07:04:08;;;;;;;9.07;6.72;;;18.70;84.00;;;;;;5034329;28;20283;-62
2022/08/31 07:06:37;;;;;;;8.00;6.38;;;18.70;83.90;;;;;;5032774;28;20709;-60
2022/08/31 07:09:05;;;;;;;7.88;6.65;;;18.70;84.00;;;;;;5034723;28;20040;-62
2022/08/31 07:11:35;;;;;;;7.72;6.70;;;18.70;84.10;;;;;;5032359;28;20085;-59
2022/08/31 07:14:03;;;;;;;7.30;6.60;;;18.70;84.20;;;;;;5036185;28;20041;-60
2022/08/31 07:16:28;;;;;;;7.65;6.85;;;18.70;84.30;;;;;;5032795;28;20036;-61
2022/08/31 07:18:58;;;;;;;8.57;7.05;;;18.70;84.40;;;;;;5032810;28;20408;-61
2022/08/31 07:21:30;;;;;;;8.43;6.20;;;18.70;84.70;;;;;;5035688;28;20044;-61
2022/08/31 07:23:58;;;;;;;7.45;6.70;;;18.70;85.00;;;;;;5033406;28;20037;-62
2022/08/31 07:26:31;;;;;;;8.00;6.82;;;18.70;85.00;;;;;;5033314;28;20040;-61
2022/08/31 07:28:58;;;;;;;9.85;7.13;;;18.70;85.20;;;;;;5032656;28;20515;-62
2022/08/31 07:31:31;;;;;;;9.00;6.90;;;18.70;84.60;;;;;;5033375;28;20121;-61
2022/08/31 07:33:57;;;;;;;10.35;7.00;;;18.80;84.60;;;;;;5034169;28;20452;-62
2022/08/31 07:36:25;;;;;;;8.27;6.45;;;18.80;84.50;;;;;;5032996;28;20120;-61
2022/08/31 07:44:21;;;;;;;7.63;6.20;;;18.80;84.10;;;;;;5031969;28;20383;-62
2022/08/31 07:46:48;;;;;;;7.78;6.30;;;18.80;84.10;;;;;;5033848;28;20040;-62
2022/08/31 07:49:15;;;;;;;6.97;6.07;;;18.70;84.20;;;;;;5032325;28;20045;-60
2022/08/31 07:51:44;;;;;;;8.55;6.65;;;18.80;84.60;;;;;;5034071;28;20040;-60
2022/08/31 07:54:11;;;;;;;7.32;6.43;;;18.80;84.60;;;;;;5033318;28;20095;-59
2022/08/31 07:56:38;;;;;;;8.57;6.63;;;18.80;84.60;;;;;;5032292;28;20557;-61
2022/08/31 07:59:06;;;;;;;9.20;6.50;;;18.90;85.50;;;;;;5033666;28;20043;-61
2022/08/31 08:01:36;;;;;;;9.10;6.45;;;18.90;84.60;;;;;;5030514;28;20034;-61
2022/08/31 08:04:02;;;;;;;8.32;6.22;;;19.00;84.60;;;;;;5032013;28;20049;-61
2022/08/31 08:06:29;;;;;;;7.45;6.38;;;19.00;84.40;;;;;;5032090;28;20044;-60
2022/08/31 08:09:02;;;;;;;7.57;6.53;;;19.00;85.00;;;;;;5034059;28;20064;-61
2022/08/31 08:11:27;;;;;;;9.35;6.40;;;19.10;84.20;;;;;;5029998;28;20044;-60
2022/08/31 08:13:53;;;;;;;7.80;6.93;;;19.10;84.00;;;;;;5033236;28;20042;-61
2022/08/31 08:16:19;;;;;;;7.25;6.40;;;19.20;83.90;;;;;;5032907;28;20037;-60
2022/08/31 08:18:44;;;;;;;6.82;6.13;;;19.20;83.80;;;;;;5031939;28;20090;-61
2022/08/31 08:21:10;;;;;;;7.55;6.45;;;19.30;83.60;;;;;;5033960;28;20497;-61
2022/08/31 08:23:35;;;;;;;6.80;6.10;;;19.30;83.30;;;;;;5033597;28;20038;-60
2022/08/31 08:26:08;;;;;;;7.47;6.20;;;19.40;83.20;;;;;;5032698;28;20068;-62
2022/08/31 08:28:33;;;;;;;7.35;6.55;;;19.40;83.40;;;;;;5029869;28;20520;-61
2022/08/31 08:31:00;;;;;;;8.63;6.80;;;19.50;83.20;;;;;;5034390;28;20037;-61
2022/08/31 08:33:30;;;;;;;8.15;6.40;;;19.50;83.10;;;;;;5033663;28;20464;-61
2022/08/31 08:35:58;;;;;;;9.75;7.20;;;19.50;83.50;;;;;;5034023;28;20430;-60
2022/08/31 08:38:25;;;;;;;7.95;7.05;;;19.60;83.40;;;;;;5033262;28;20091;-60
2022/08/31 08:40:52;;;;;;;9.32;6.72;;;19.60;82.90;;;;;;5032829;28;20049;-61
2022/08/31 08:43:28;;;;;;;7.38;6.68;;;19.60;82.70;;;;;;5031051;28;20041;-61
2022/08/31 08:45:55;;;;;;;8.88;7.15;;;19.70;82.90;;;;;;5033718;28;20420;-61
2022/08/31 08:48:26;;;;;;;9.30;7.07;;;19.70;82.60;;;;;;5032121;28;20057;-61
2022/08/31 08:50:52;;;;;;;7.50;6.80;;;19.80;82.40;;;;;;5033520;28;20033;-60
2022/08/31 08:53:21;;;;;;;7.40;6.70;;;19.80;82.10;;;;;;5031975;28;20099;-59
2022/08/31 08:55:47;;;;;;;9.27;7.18;;;19.80;82.60;;;;;;5034769;28;20480;-61
2022/08/31 08:58:14;;;;;;;9.20;7.45;;;19.80;82.20;;;;;;5029816;28;20041;-61
2022/08/31 09:00:45;;;;;;;8.50;6.97;;;19.90;82.20;;;;;;5034377;28;20030;-61
2022/08/31 09:03:23;;;;;;;8.25;6.93;;;19.90;82.10;;;;;;5031665;28;20052;-61
2022/08/31 09:06:09;;;;;;;7.57;6.75;;;19.90;82.20;;;;;;5033698;28;20037;-61
2022/08/31 09:09:10;;;;;;;8.80;6.97;;;19.90;83.00;;;;;;5031487;28;20037;-60
2022/08/31 09:11:51;;;;;;;8.55;7.15;;;20.00;83.10;;;;;;5030198;28;20040;-61
2022/08/31 09:14:35;;;;;;;7.72;6.93;;;20.00;82.70;;;;;;5035207;28;20045;-60
2022/08/31 09:17:31;;;;;;;9.63;6.90;;;20.10;83.10;;;;;;5037030;28;20515;-61
2022/08/31 09:19:59;;;;;;;9.38;6.90;;;20.10;82.80;;;;;;5035655;28;20053;-61
2022/08/31 09:22:25;;;;;;;8.02;6.85;;;20.20;82.40;;;;;;5036129;28;20123;-58
2022/08/31 09:24:54;;;;;;;8.27;7.43;;;20.20;82.40;;;;;;5036251;28;20033;-61
2022/08/31 09:27:44;;;;;;;7.80;6.97;;;20.30;82.50;;;;;;5033494;28;20576;-60
2022/08/31 09:30:16;;;;;;;9.50;7.45;;;20.30;82.60;;;;;;5032208;28;20060;-59
2022/08/31 09:32:55;;;;;;;8.45;7.53;;;20.40;82.20;;;;;;5033891;28;20505;-60
2022/08/31 09:35:39;;;;;;;8.43;7.60;;;20.30;81.50;;;;;;5032020;28;20409;-61
2022/08/31 09:38:10;;;;;;;8.32;7.20;;;20.40;81.50;;;;;;5031898;28;20050;-62
2022/08/31 09:40:41;;;;;;;7.90;6.93;;;20.40;81.30;;;;;;5032272;28;20563;-61
2022/08/31 09:43:12;;;;;;;8.25;7.45;;;20.40;81.20;;;;;;5033092;28;20090;-61
2022/08/31 09:45:51;;;;;;;8.80;7.82;;;20.40;81.20;;;;;;5033691;28;20390;-59
2022/08/31 09:48:42;;;;;;;9.25;7.68;;;20.30;81.90;;;;;;5030906;28;20550;-61
2022/08/31 09:51:18;;;;;;;9.27;7.72;;;20.30;82.70;;;;;;5031678;28;20044;-60
2022/08/31 09:56:28;;;;;;;8.48;7.68;;;20.30;82.00;;;;;;5033212;28;20036;-59
2022/08/31 09:59:01;;;;;;;10.38;8.10;;;20.20;81.90;;;;;;5030829;28;20037;-59
2022/08/31 10:01:41;;;;;;;10.60;8.45;;;20.20;82.10;;;;;;5034514;28;20052;-61
2022/08/31 10:04:15;;;;;;;10.85;8.60;;;20.10;82.30;;;;;;5031796;28;20127;-61
2022/08/31 10:06:56;;;;;;;11.40;8.50;;;20.10;82.40;;;;;;5031141;28;20034;-61
2022/08/31 10:09:28;;;;;;;9.88;8.90;;;20.10;82.60;;;;;;5033377;28;20137;-61
2022/08/31 10:11:58;;;;;;;9.60;8.35;;;20.10;82.20;;;;;;5033944;28;20051;-61
2022/08/31 10:14:42;;;;;;;10.05;8.35;;;20.00;82.40;;;;;;5036262;28;22250;-61
2022/08/31 10:17:24;;;;;;;10.32;8.88;;;20.00;83.10;;;;;;5037104;28;20037;-61
2022/08/31 10:20:06;;;;;;;10.48;8.55;;;20.00;83.10;;;;;;5036248;28;20038;-61
2022/08/31 10:22:44;;;;;;;8.98;8.07;;;20.00;82.60;;;;;;5034864;28;20618;-61
2022/08/31 10:25:34;;;;;;;9.73;8.10;;;20.10;82.40;;;;;;5035827;28;20485;-61
2022/08/31 10:28:23;;;;;;;8.60;7.63;;;20.10;82.20;;;;;;5035953;28;20084;-61
2022/08/31 10:30:59;;;;;;;9.27;8.00;;;20.10;82.60;;;;;;5035163;28;20037;-60
2022/08/31 10:36:24;;;;;;;9.23;8.25;;;20.20;83.60;;;;;;5036551;28;20519;-62
2022/08/31 10:38:53;;;;;;;9.27;8.13;;;20.20;82.80;;;;;;5034884;28;20034;-61
2022/08/31 10:41:29;;;;;;;10.52;8.30;;;20.20;82.90;;;;;;5036330;28;20398;-61
2022/08/31 10:44:00;;;;;;;11.65;8.77;;;20.30;82.90;;;;;;5034943;28;20045;-61
2022/08/31 10:46:29;;;;;;;8.57;7.78;;;20.30;82.70;;;;;;5033854;28;20034;-62
2022/08/31 10:48:56;;;;;;;9.48;8.45;;;20.30;82.80;;;;;;5034899;28;20037;-60
2022/08/31 10:51:33;;;;;;;9.52;8.55;;;20.30;83.40;;;;;;5033624;28;20063;-62
2022/08/31 10:54:20;;;;;;;9.45;8.10;;;20.40;82.20;;;;;;5036013;28;20033;-62
2022/08/31 10:56:57;;;;;;;9.48;8.27;;;20.50;82.40;;;;;;5034009;28;20048;-60
2022/08/31 10:59:32;;;;;;;9.88;8.40;;;20.40;82.20;;;;;;5034603;28;20746;-61
2022/08/31 11:02:28;;;;;;;10.73;8.30;;;20.40;82.40;;;;;;5035815;28;20440;-61
2022/08/31 11:05:02;;;;;;;10.02;8.18;;;20.40;82.70;;;;;;5035659;28;20506;-60
2022/08/31 11:07:37;;;;;;;9.98;8.98;;;20.50;82.80;;;;;;5034661;28;20033;-61
2022/08/31 11:10:31;;;;;;;9.30;8.40;;;20.50;83.00;;;;;;5034385;28;20505;-61
2022/08/31 11:13:13;;;;;;;9.52;7.75;;;20.60;82.80;;;;;;5031197;28;20037;-61
2022/08/31 11:16:16;;;;;;;8.88;7.97;;;20.60;83.30;;;;;;5035740;28;20036;-61
2022/08/31 11:18:50;;;;;;;8.48;7.57;;;20.70;83.20;;;;;;5036245;28;20056;-61
2022/08/31 11:21:21;;;;;;;8.23;7.43;;;20.70;81.30;;;;;;5034177;28;20083;-61
2022/08/31 11:24:05;;;;;;;8.70;7.80;;;20.80;81.20;;;;;;5033928;28;20041;-61
2022/08/31 11:26:42;;;;;;;8.80;7.85;;;20.70;80.50;;;;;;5034483;28;20130;-59
2022/08/31 11:29:32;;;;;;;9.27;8.32;;;20.70;80.90;;;;;;5032819;28;20076;-61
2022/08/31 11:32:14;;;;;;;9.48;7.78;;;20.80;81.00;;;;;;5034465;28;20034;-61
2022/08/31 11:34:53;;;;;;;10.35;8.38;;;20.80;80.90;;;;;;5033287;28;20029;-60
2022/08/31 11:37:45;;;;;;;9.52;8.50;;;20.90;81.20;;;;;;5034092;28;20461;-61
2022/08/31 11:40:11;;;;;;;10.13;8.00;;;20.90;81.00;;;;;;5032524;28;20520;-61
2022/08/31 11:42:37;;;;;;;10.48;7.78;;;20.90;80.00;;;;;;5033665;28;20044;-60
2022/08/31 11:45:06;;;;;;;9.32;8.38;;;20.90;80.30;;;;;;5033733;28;20022;-62
2022/08/31 11:47:40;;;;;;;8.85;8.05;;;21.00;80.70;;;;;;5033933;28;20036;-61
2022/08/31 11:50:34;;;;;;;11.05;8.48;;;21.00;80.80;;;;;;5034124;28;20061;-61
2022/08/31 11:53:24;;;;;;;9.63;7.88;;;21.00;80.90;;;;;;5033644;28;20091;-60
2022/08/31 11:55:54;;;;;;;9.15;7.85;;;21.00;80.50;;;;;;5035323;28;20495;-61
2022/08/31 11:58:33;;;;;;;11.80;8.32;;;21.00;81.10;;;;;;5032761;28;20037;-61
2022/08/31 12:01:00;;;;;;;10.75;8.30;;;21.10;81.10;;;;;;5036228;28;20028;-60
2022/08/31 12:03:35;;;;;;;10.43;9.35;;;21.10;80.80;;;;;;5033857;28;20033;-60
2022/08/31 12:06:02;;;;;;;9.05;7.93;;;21.10;80.60;;;;;;5035564;28;20635;-61
2022/08/31 12:08:31;;;;;;;9.35;8.43;;;21.20;80.90;;;;;;5033904;28;20133;-61
2022/08/31 12:11:15;;;;;;;9.82;8.48;;;21.20;80.80;;;;;;5030891;28;20127;-62
2022/08/31 12:13:52;;;;;;;10.25;8.93;;;21.20;79.90;;;;;;5031754;28;20056;-61
2022/08/31 12:16:29;;;;;;;10.18;8.82;;;21.20;79.10;;;;;;5037250;28;20041;-60
2022/08/31 12:18:56;;;;;;;9.43;8.27;;;21.20;78.60;;;;;;5035308;28;20047;-60
2022/08/31 12:24:30;;;;;;;9.52;8.50;;;21.10;78.70;;;;;;5036977;28;20516;-60
2022/08/31 12:27:23;;;;;;;9.43;8.23;;;21.10;79.50;;;;;;5035547;28;20110;-59
2022/08/31 12:29:49;;;;;;;9.25;8.35;;;21.10;80.40;;;;;;5035617;28;20280;-61
2022/08/31 12:32:36;;;;;;;8.95;8.02;;;21.10;80.00;;;;;;5036026;28;20052;-60
2022/08/31 12:35:07;;;;;;;10.10;8.98;;;21.20;80.80;;;;;;5015591;28;20087;-61
2022/08/31 12:37:36;;;;;;;10.60;9.15;;;21.20;80.90;;;;;;5016926;28;20041;-61
2022/08/31 12:40:22;;;;;;;12.82;9.38;;;21.30;80.50;;;;;;5016290;28;20029;-61
2022/08/31 12:43:02;;;;;;;10.43;8.60;;;21.40;80.60;;;;;;5014726;28;20241;-60
2022/08/31 12:45:40;;;;;;;8.98;8.07;;;21.40;79.60;;;;;;5017295;28;20052;-61
2022/08/31 12:48:09;;;;;;;11.68;8.85;;;21.50;79.70;;;;;;5015552;28;20093;-61
2022/08/31 12:50:42;;;;;;;9.70;8.00;;;21.60;80.10;;;;;;5016659;28;20038;-61
2022/08/31 12:53:33;;;;;;;10.38;7.72;;;21.60;79.90;;;;;;5015673;28;20507;-62
2022/08/31 12:56:05;;;;;;;9.05;7.13;;;21.70;79.60;;;;;;5014567;28;20038;-61
2022/08/31 12:58:46;;;;;;;8.63;7.78;;;21.70;78.90;;;;;;5016333;28;20091;-62
2022/08/31 13:01:19;;;;;;;9.25;8.05;;;21.80;77.50;;;;;;5015282;28;20405;-61
2022/08/31 13:03:49;;;;;;;8.77;7.82;;;21.80;77.70;;;;;;5015554;28;20448;-62
2022/08/31 13:06:23;;;;;;;10.43;8.40;;;21.80;77.20;;;;;;5017396;28;20034;-62
2022/08/31 13:08:50;;;;;;;7.07;6.38;;;21.90;77.40;;;;;;5014977;28;20446;-60
2022/08/31 13:11:22;;;;;;;6.47;5.88;;;21.90;77.00;;;;;;5015945;28;20050;-61
2022/08/31 13:13:47;;;;;;;8.05;6.03;;;21.90;76.10;;;;;;5015860;28;20401;-61
2022/08/31 13:16:13;;;;;;;6.72;6.13;;;21.90;75.60;;;;;;5011739;28;20045;-61
2022/08/31 13:18:39;;;;;;;7.47;6.53;;;22.00;75.40;;;;;;5013390;28;20457;-62